SBVT/VIX METAR and TAF weather

Enter ICAO airport designator
Station Type Date Time Source
SBVT METAR 2021/09/28 15:00 UTC NOAA

SBVT 281500Z 05011KT 9999 SCT030 27/20 Q1018


Station Type Date Time Source
SBVT Decoded METAR 2021/09/28 15:00 UTC NOAA

Vitoria Aeroporto , Brazil (SBVT) 20-16S 040-17W 4M
Sep 28, 2021 - 11:00 AM EDT / 2021.09.28 1500 UTC
Wind: from the NE (050 degrees) at 13 MPH (11 KT):0
Visibility: greater than 7 mile(s):0
Sky conditions: partly cloudy
Temperature: 80 F (27 C)
Dew Point: 68 F (20 C)
Relative Humidity: 65%
Pressure (altimeter): 30.06 in. Hg (1018 hPa)
ob: SBVT 281500Z 05011KT 9999 SCT030 27/20 Q1018
cycle: 15

Station Type Date Time Source
SBVT TAF 2021/09/28 12:21 UTC NOAA

TAF SBVT 280900Z 2812/2912 03010KT 9999 SCT030 TN22/2908Z TX26/2912Z
BECMG 2814/2816 07010KT PROB40 2817/2820 07015G25KT
BECMG 2821/2823 03010KT FEW020 BKN040
BECMG 2900/2902 35005KT FEW015
BECMG 2910/2912 02010KT FEW020
RMK PGY

Example: see airport list